sensor_id;sensor_type;location;lat;lon;timestamp;P1;durP1;ratioP1;P2;durP2;ratioP2
52480;SDS011;38393;52.404;13.532;2023-03-30T00:01:32;11.30;;;7.00;;
52480;SDS011;38393;52.404;13.532;2023-03-30T00:03:58;9.07;;;6.37;;
52480;SDS011;38393;52.404;13.532;2023-03-30T00:06:23;9.73;;;6.83;;
52480;SDS011;38393;52.404;13.532;2023-03-30T00:08:51;9.50;;;6.80;;
52480;SDS011;38393;52.404;13.532;2023-03-30T00:11:20;10.97;;;7.23;;
52480;SDS011;38393;52.404;13.532;2023-03-30T00:13:47;12.47;;;7.77;;
52480;SDS011;38393;52.404;13.532;2023-03-30T00:16:12;11.67;;;7.23;;
52480;SDS011;38393;52.404;13.532;2023-03-30T00:18:38;11.73;;;7.40;;
52480;SDS011;38393;52.404;13.532;2023-03-30T00:21:05;9.63;;;6.80;;
52480;SDS011;38393;52.404;13.532;2023-03-30T00:23:31;9.73;;;6.97;;
52480;SDS011;38393;52.404;13.532;2023-03-30T00:25:57;10.30;;;7.20;;
52480;SDS011;38393;52.404;13.532;2023-03-30T00:28:23;10.93;;;7.00;;
52480;SDS011;38393;52.404;13.532;2023-03-30T00:30:50;11.63;;;7.10;;
52480;SDS011;38393;52.404;13.532;2023-03-30T00:33:17;11.43;;;7.50;;
52480;SDS011;38393;52.404;13.532;2023-03-30T00:35:50;11.43;;;7.73;;
52480;SDS011;38393;52.404;13.532;2023-03-30T00:38:16;10.60;;;7.40;;
52480;SDS011;38393;52.404;13.532;2023-03-30T00:40:41;11.37;;;7.30;;
52480;SDS011;38393;52.404;13.532;2023-03-30T00:43:18;10.73;;;7.90;;
52480;SDS011;38393;52.404;13.532;2023-03-30T00:45:44;11.60;;;7.77;;
52480;SDS011;38393;52.404;13.532;2023-03-30T00:48:27;12.47;;;8.20;;
52480;SDS011;38393;52.404;13.532;2023-03-30T00:51:02;11.53;;;8.10;;
52480;SDS011;38393;52.404;13.532;2023-03-30T00:53:33;12.37;;;7.77;;
52480;SDS011;38393;52.404;13.532;2023-03-30T00:56:05;10.93;;;7.70;;
52480;SDS011;38393;52.404;13.532;2023-03-30T00:58:34;10.30;;;7.27;;
52480;SDS011;38393;52.404;13.532;2023-03-30T01:01:02;13.57;;;7.97;;
52480;SDS011;38393;52.404;13.532;2023-03-30T01:03:33;14.97;;;7.87;;
52480;SDS011;38393;52.404;13.532;2023-03-30T01:06:04;11.83;;;7.80;;
52480;SDS011;38393;52.404;13.532;2023-03-30T01:08:31;11.57;;;7.90;;
52480;SDS011;38393;52.404;13.532;2023-03-30T01:10:58;11.57;;;7.90;;
52480;SDS011;38393;52.404;13.532;2023-03-30T01:13:28;12.13;;;7.90;;
52480;SDS011;38393;52.404;13.532;2023-03-30T01:16:08;11.10;;;7.87;;
52480;SDS011;38393;52.404;13.532;2023-03-30T01:21:56;11.57;;;8.17;;
52480;SDS011;38393;52.404;13.532;2023-03-30T01:33:07;12.83;;;8.47;;
52480;SDS011;38393;52.404;13.532;2023-03-30T01:38:25;13.50;;;8.23;;
52480;SDS011;38393;52.404;13.532;2023-03-30T01:41:27;13.20;;;8.33;;
52480;SDS011;38393;52.404;13.532;2023-03-30T01:44:26;14.20;;;8.50;;
52480;SDS011;38393;52.404;13.532;2023-03-30T01:47:16;14.03;;;8.77;;
52480;SDS011;38393;52.404;13.532;2023-03-30T01:58:04;13.67;;;8.90;;
52480;SDS011;38393;52.404;13.532;2023-03-30T02:00:32;16.70;;;9.47;;
52480;SDS011;38393;52.404;13.532;2023-03-30T02:03:23;15.20;;;10.17;;
52480;SDS011;38393;52.404;13.532;2023-03-30T02:05:52;15.93;;;9.23;;
52480;SDS011;38393;52.404;13.532;2023-03-30T02:08:22;13.10;;;9.10;;
52480;SDS011;38393;52.404;13.532;2023-03-30T02:10:53;16.47;;;9.77;;
52480;SDS011;38393;52.404;13.532;2023-03-30T02:13:22;14.87;;;10.03;;
52480;SDS011;38393;52.404;13.532;2023-03-30T02:15:51;16.70;;;9.37;;
52480;SDS011;38393;52.404;13.532;2023-03-30T02:18:22;16.80;;;9.43;;
52480;SDS011;38393;52.404;13.532;2023-03-30T02:20:47;17.83;;;9.00;;
52480;SDS011;38393;52.404;13.532;2023-03-30T02:23:13;14.30;;;9.53;;
52480;SDS011;38393;52.404;13.532;2023-03-30T02:25:42;18.43;;;9.77;;
52480;SDS011;38393;52.404;13.532;2023-03-30T02:28:09;16.13;;;9.73;;
52480;SDS011;38393;52.404;13.532;2023-03-30T02:30:37;16.03;;;9.53;;
52480;SDS011;38393;52.404;13.532;2023-03-30T02:33:05;16.27;;;9.47;;
52480;SDS011;38393;52.404;13.532;2023-03-30T02:35:48;19.53;;;9.80;;
52480;SDS011;38393;52.404;13.532;2023-03-30T02:38:24;16.30;;;9.70;;
52480;SDS011;38393;52.404;13.532;2023-03-30T02:43:44;15.10;;;9.93;;
52480;SDS011;38393;52.404;13.532;2023-03-30T02:46:29;15.53;;;9.13;;
52480;SDS011;38393;52.404;13.532;2023-03-30T02:49:32;13.23;;;9.20;;
52480;SDS011;38393;52.404;13.532;2023-03-30T02:55:18;17.60;;;9.40;;
52480;SDS011;38393;52.404;13.532;2023-03-30T03:00:40;18.47;;;10.03;;
52480;SDS011;38393;52.404;13.532;2023-03-30T03:03:12;17.50;;;9.87;;
52480;SDS011;38393;52.404;13.532;2023-03-30T03:05:42;15.57;;;9.47;;
52480;SDS011;38393;52.404;13.532;2023-03-30T03:08:11;15.87;;;9.80;;
52480;SDS011;38393;52.404;13.532;2023-03-30T03:10:38;15.03;;;9.73;;
52480;SDS011;38393;52.404;13.532;2023-03-30T03:13:04;15.47;;;9.33;;
52480;SDS011;38393;52.404;13.532;2023-03-30T03:15:29;18.13;;;9.17;;
52480;SDS011;38393;52.404;13.532;2023-03-30T03:17:55;17.97;;;9.87;;
52480;SDS011;38393;52.404;13.532;2023-03-30T03:20:22;15.13;;;9.30;;
52480;SDS011;38393;52.404;13.532;2023-03-30T03:22:47;15.90;;;9.70;;
52480;SDS011;38393;52.404;13.532;2023-03-30T03:25:13;15.97;;;9.60;;
52480;SDS011;38393;52.404;13.532;2023-03-30T03:27:39;14.00;;;8.97;;
52480;SDS011;38393;52.404;13.532;2023-03-30T03:30:05;16.33;;;9.77;;
52480;SDS011;38393;52.404;13.532;2023-03-30T03:32:31;15.60;;;9.03;;
52480;SDS011;38393;52.404;13.532;2023-03-30T03:34:57;14.10;;;9.37;;
52480;SDS011;38393;52.404;13.532;2023-03-30T03:37:22;15.23;;;9.37;;
52480;SDS011;38393;52.404;13.532;2023-03-30T03:39:48;15.63;;;9.20;;
52480;SDS011;38393;52.404;13.532;2023-03-30T03:42:13;14.87;;;9.43;;
52480;SDS011;38393;52.404;13.532;2023-03-30T03:44:39;13.97;;;8.67;;
52480;SDS011;38393;52.404;13.532;2023-03-30T03:47:04;13.87;;;8.90;;
52480;SDS011;38393;52.404;13.532;2023-03-30T03:49:30;13.73;;;8.20;;
52480;SDS011;38393;52.404;13.532;2023-03-30T03:51:56;12.97;;;8.77;;
52480;SDS011;38393;52.404;13.532;2023-03-30T03:54:21;12.87;;;8.57;;
52480;SDS011;38393;52.404;13.532;2023-03-30T03:56:46;13.77;;;8.90;;
52480;SDS011;38393;52.404;13.532;2023-03-30T03:59:12;12.40;;;8.70;;
52480;SDS011;38393;52.404;13.532;2023-03-30T04:01:38;16.03;;;8.63;;
52480;SDS011;38393;52.404;13.532;2023-03-30T04:04:03;15.00;;;9.07;;
52480;SDS011;38393;52.404;13.532;2023-03-30T04:06:29;13.83;;;8.73;;
52480;SDS011;38393;52.404;13.532;2023-03-30T04:08:54;11.93;;;8.37;;
52480;SDS011;38393;52.404;13.532;2023-03-30T04:11:20;15.30;;;8.90;;
52480;SDS011;38393;52.404;13.532;2023-03-30T04:13:46;15.77;;;8.80;;
52480;SDS011;38393;52.404;13.532;2023-03-30T04:16:12;15.50;;;9.27;;
52480;SDS011;38393;52.404;13.532;2023-03-30T04:18:37;14.90;;;9.27;;
52480;SDS011;38393;52.404;13.532;2023-03-30T04:21:05;15.57;;;9.77;;
52480;SDS011;38393;52.404;13.532;2023-03-30T04:23:36;15.93;;;9.70;;
52480;SDS011;38393;52.404;13.532;2023-03-30T04:26:04;16.53;;;9.30;;
52480;SDS011;38393;52.404;13.532;2023-03-30T04:28:31;13.13;;;8.53;;
52480;SDS011;38393;52.404;13.532;2023-03-30T04:30:58;14.13;;;9.07;;
52480;SDS011;38393;52.404;13.532;2023-03-30T04:33:25;14.00;;;9.33;;
52480;SDS011;38393;52.404;13.532;2023-03-30T04:35:51;12.93;;;8.77;;
52480;SDS011;38393;52.404;13.532;2023-03-30T04:38:17;14.60;;;9.20;;
52480;SDS011;38393;52.404;13.532;2023-03-30T04:40:48;15.70;;;9.13;;
52480;SDS011;38393;52.404;13.532;2023-03-30T04:43:18;13.30;;;9.00;;
52480;SDS011;38393;52.404;13.532;2023-03-30T04:45:50;13.80;;;8.43;;
52480;SDS011;38393;52.404;13.532;2023-03-30T04:48:17;13.23;;;9.03;;
52480;SDS011;38393;52.404;13.532;2023-03-30T04:50:44;13.93;;;8.93;;
52480;SDS011;38393;52.404;13.532;2023-03-30T04:53:11;16.30;;;8.43;;
52480;SDS011;38393;52.404;13.532;2023-03-30T04:55:39;21.53;;;8.50;;
52480;SDS011;38393;52.404;13.532;2023-03-30T04:58:04;12.43;;;8.67;;
52480;SDS011;38393;52.404;13.532;2023-03-30T05:00:30;13.23;;;8.30;;
52480;SDS011;38393;52.404;13.532;2023-03-30T05:02:56;13.37;;;8.10;;
52480;SDS011;38393;52.404;13.532;2023-03-30T05:05:21;19.50;;;8.40;;
52480;SDS011;38393;52.404;13.532;2023-03-30T05:07:47;16.77;;;8.40;;
52480;SDS011;38393;52.404;13.532;2023-03-30T05:10:12;14.20;;;8.20;;
52480;SDS011;38393;52.404;13.532;2023-03-30T05:12:38;13.93;;;7.97;;
52480;SDS011;38393;52.404;13.532;2023-03-30T05:15:04;13.00;;;7.67;;
52480;SDS011;38393;52.404;13.532;2023-03-30T05:17:33;17.87;;;8.23;;
52480;SDS011;38393;52.404;13.532;2023-03-30T05:19:59;11.47;;;7.77;;
52480;SDS011;38393;52.404;13.532;2023-03-30T05:22:32;19.17;;;7.53;;
52480;SDS011;38393;52.404;13.532;2023-03-30T05:24:58;11.93;;;7.57;;
52480;SDS011;38393;52.404;13.532;2023-03-30T05:27:23;9.30;;;6.67;;
52480;SDS011;38393;52.404;13.532;2023-03-30T05:29:49;16.03;;;8.00;;
52480;SDS011;38393;52.404;13.532;2023-03-30T05:32:15;11.87;;;7.47;;
52480;SDS011;38393;52.404;13.532;2023-03-30T05:34:41;10.53;;;7.47;;
52480;SDS011;38393;52.404;13.532;2023-03-30T05:37:06;11.17;;;7.23;;
52480;SDS011;38393;52.404;13.532;2023-03-30T05:39:32;11.10;;;6.93;;
52480;SDS011;38393;52.404;13.532;2023-03-30T05:41:57;12.23;;;7.47;;
52480;SDS011;38393;52.404;13.532;2023-03-30T05:44:23;10.13;;;6.80;;
52480;SDS011;38393;52.404;13.532;2023-03-30T05:46:48;11.13;;;6.90;;
52480;SDS011;38393;52.404;13.532;2023-03-30T05:49:14;9.83;;;7.20;;
52480;SDS011;38393;52.404;13.532;2023-03-30T05:51:39;11.40;;;7.47;;
52480;SDS011;38393;52.404;13.532;2023-03-30T05:54:05;12.53;;;7.17;;
52480;SDS011;38393;52.404;13.532;2023-03-30T05:56:30;12.30;;;7.27;;
52480;SDS011;38393;52.404;13.532;2023-03-30T05:58:56;11.23;;;6.87;;
52480;SDS011;38393;52.404;13.532;2023-03-30T06:01:21;10.10;;;7.20;;
52480;SDS011;38393;52.404;13.532;2023-03-30T06:03:47;15.73;;;6.87;;
52480;SDS011;38393;52.404;13.532;2023-03-30T06:06:12;9.37;;;6.83;;
52480;SDS011;38393;52.404;13.532;2023-03-30T06:08:38;11.90;;;7.30;;
52480;SDS011;38393;52.404;13.532;2023-03-30T06:11:05;11.13;;;6.40;;
52480;SDS011;38393;52.404;13.532;2023-03-30T06:13:31;11.90;;;7.33;;
52480;SDS011;38393;52.404;13.532;2023-03-30T06:15:57;10.17;;;6.97;;
52480;SDS011;38393;52.404;13.532;2023-03-30T06:18:23;9.90;;;6.43;;
52480;SDS011;38393;52.404;13.532;2023-03-30T06:20:48;9.80;;;6.70;;
52480;SDS011;38393;52.404;13.532;2023-03-30T06:23:15;10.70;;;6.73;;
52480;SDS011;38393;52.404;13.532;2023-03-30T06:25:44;13.00;;;7.00;;
52480;SDS011;38393;52.404;13.532;2023-03-30T06:28:10;10.83;;;6.60;;
52480;SDS011;38393;52.404;13.532;2023-03-30T06:30:37;14.50;;;7.37;;
52480;SDS011;38393;52.404;13.532;2023-03-30T06:33:02;11.80;;;7.90;;
52480;SDS011;38393;52.404;13.532;2023-03-30T06:35:28;12.17;;;7.20;;
52480;SDS011;38393;52.404;13.532;2023-03-30T06:37:53;11.13;;;7.10;;
52480;SDS011;38393;52.404;13.532;2023-03-30T06:40:19;11.10;;;7.00;;
52480;SDS011;38393;52.404;13.532;2023-03-30T06:42:44;12.90;;;7.30;;
52480;SDS011;38393;52.404;13.532;2023-03-30T06:45:11;16.60;;;7.70;;
52480;SDS011;38393;52.404;13.532;2023-03-30T06:47:38;15.73;;;7.77;;
52480;SDS011;38393;52.404;13.532;2023-03-30T06:50:05;16.93;;;8.77;;
52480;SDS011;38393;52.404;13.532;2023-03-30T06:52:35;16.00;;;7.70;;
52480;SDS011;38393;52.404;13.532;2023-03-30T06:55:01;13.90;;;7.63;;
52480;SDS011;38393;52.404;13.532;2023-03-30T06:57:28;13.70;;;7.27;;
52480;SDS011;38393;52.404;13.532;2023-03-30T06:59:53;14.50;;;7.00;;
52480;SDS011;38393;52.404;13.532;2023-03-30T07:02:19;14.60;;;7.33;;
52480;SDS011;38393;52.404;13.532;2023-03-30T07:04:45;13.57;;;6.87;;
52480;SDS011;38393;52.404;13.532;2023-03-30T07:07:10;11.50;;;6.40;;
52480;SDS011;38393;52.404;13.532;2023-03-30T07:09:36;9.97;;;6.27;;
52480;SDS011;38393;52.404;13.532;2023-03-30T07:12:02;14.83;;;6.47;;
52480;SDS011;38393;52.404;13.532;2023-03-30T07:14:27;10.80;;;6.00;;
52480;SDS011;38393;52.404;13.532;2023-03-30T07:16:53;11.67;;;5.93;;
52480;SDS011;38393;52.404;13.532;2023-03-30T07:19:18;9.57;;;6.27;;
52480;SDS011;38393;52.404;13.532;2023-03-30T07:21:44;9.40;;;6.27;;
52480;SDS011;38393;52.404;13.532;2023-03-30T07:24:09;12.23;;;5.97;;
52480;SDS011;38393;52.404;13.532;2023-03-30T07:26:35;11.40;;;5.83;;
52480;SDS011;38393;52.404;13.532;2023-03-30T07:29:00;10.43;;;6.23;;
52480;SDS011;38393;52.404;13.532;2023-03-30T07:31:26;10.53;;;5.73;;
52480;SDS011;38393;52.404;13.532;2023-03-30T07:33:52;10.03;;;5.93;;
52480;SDS011;38393;52.404;13.532;2023-03-30T07:36:17;8.87;;;5.60;;
52480;SDS011;38393;52.404;13.532;2023-03-30T07:38:43;9.00;;;5.40;;
52480;SDS011;38393;52.404;13.532;2023-03-30T07:41:11;8.23;;;5.53;;
52480;SDS011;38393;52.404;13.532;2023-03-30T07:43:38;11.97;;;5.80;;
52480;SDS011;38393;52.404;13.532;2023-03-30T07:46:07;7.70;;;5.17;;
52480;SDS011;38393;52.404;13.532;2023-03-30T07:48:33;9.93;;;5.20;;
52480;SDS011;38393;52.404;13.532;2023-03-30T07:51:03;11.03;;;5.17;;
52480;SDS011;38393;52.404;13.532;2023-03-30T07:53:31;10.90;;;4.83;;
52480;SDS011;38393;52.404;13.532;2023-03-30T07:55:57;11.33;;;5.27;;
52480;SDS011;38393;52.404;13.532;2023-03-30T07:58:23;7.90;;;4.90;;
52480;SDS011;38393;52.404;13.532;2023-03-30T08:00:50;7.60;;;5.10;;
52480;SDS011;38393;52.404;13.532;2023-03-30T08:03:17;12.27;;;6.60;;
52480;SDS011;38393;52.404;13.532;2023-03-30T08:05:50;7.97;;;5.00;;
52480;SDS011;38393;52.404;13.532;2023-03-30T08:08:17;14.47;;;5.90;;
52480;SDS011;38393;52.404;13.532;2023-03-30T08:10:43;8.63;;;5.70;;
52480;SDS011;38393;52.404;13.532;2023-03-30T08:13:09;12.73;;;5.50;;
52480;SDS011;38393;52.404;13.532;2023-03-30T08:15:36;8.70;;;4.63;;
52480;SDS011;38393;52.404;13.532;2023-03-30T08:18:01;7.17;;;4.80;;
52480;SDS011;38393;52.404;13.532;2023-03-30T08:20:32;8.20;;;4.77;;
52480;SDS011;38393;52.404;13.532;2023-03-30T08:22:58;8.03;;;4.90;;
52480;SDS011;38393;52.404;13.532;2023-03-30T08:25:24;9.87;;;4.57;;
52480;SDS011;38393;52.404;13.532;2023-03-30T08:27:52;10.97;;;5.03;;
52480;SDS011;38393;52.404;13.532;2023-03-30T08:30:17;6.67;;;4.33;;
52480;SDS011;38393;52.404;13.532;2023-03-30T08:32:43;7.73;;;4.27;;
52480;SDS011;38393;52.404;13.532;2023-03-30T08:35:09;9.83;;;3.83;;
52480;SDS011;38393;52.404;13.532;2023-03-30T08:37:35;11.57;;;3.73;;
52480;SDS011;38393;52.404;13.532;2023-03-30T08:40:01;9.43;;;3.67;;
52480;SDS011;38393;52.404;13.532;2023-03-30T08:45:20;15.40;;;3.50;;
52480;SDS011;38393;52.404;13.532;2023-03-30T08:47:47;5.73;;;3.03;;
52480;SDS011;38393;52.404;13.532;2023-03-30T08:50:29;5.73;;;2.97;;
52480;SDS011;38393;52.404;13.532;2023-03-30T08:52:59;9.10;;;2.93;;
52480;SDS011;38393;52.404;13.532;2023-03-30T08:55:30;5.77;;;3.10;;
52480;SDS011;38393;52.404;13.532;2023-03-30T09:00:46;6.97;;;3.10;;
52480;SDS011;38393;52.404;13.532;2023-03-30T09:03:39;6.47;;;3.10;;
52480;SDS011;38393;52.404;13.532;2023-03-30T09:06:14;9.30;;;3.00;;
52480;SDS011;38393;52.404;13.532;2023-03-30T09:08:49;9.83;;;3.13;;
52480;SDS011;38393;52.404;13.532;2023-03-30T09:11:18;4.90;;;3.07;;
52480;SDS011;38393;52.404;13.532;2023-03-30T09:13:54;9.87;;;3.20;;
52480;SDS011;38393;52.404;13.532;2023-03-30T09:16:28;6.13;;;2.83;;
52480;SDS011;38393;52.404;13.532;2023-03-30T09:19:08;5.83;;;3.10;;
52480;SDS011;38393;52.404;13.532;2023-03-30T09:21:40;8.67;;;3.03;;
52480;SDS011;38393;52.404;13.532;2023-03-30T09:24:11;8.73;;;3.50;;
52480;SDS011;38393;52.404;13.532;2023-03-30T09:29:18;6.13;;;3.20;;
52480;SDS011;38393;52.404;13.532;2023-03-30T09:32:01;7.10;;;3.17;;
52480;SDS011;38393;52.404;13.532;2023-03-30T09:34:46;7.07;;;3.17;;
52480;SDS011;38393;52.404;13.532;2023-03-30T09:37:33;10.07;;;3.30;;
52480;SDS011;38393;52.404;13.532;2023-03-30T09:40:01;6.47;;;2.97;;
52480;SDS011;38393;52.404;13.532;2023-03-30T09:42:56;6.30;;;2.73;;
52480;SDS011;38393;52.404;13.532;2023-03-30T09:45:29;8.77;;;3.23;;
52480;SDS011;38393;52.404;13.532;2023-03-30T09:48:04;8.47;;;2.60;;
52480;SDS011;38393;52.404;13.532;2023-03-30T09:50:35;11.43;;;3.20;;
52480;SDS011;38393;52.404;13.532;2023-03-30T09:53:23;7.33;;;2.90;;
52480;SDS011;38393;52.404;13.532;2023-03-30T09:55:57;8.47;;;2.87;;
52480;SDS011;38393;52.404;13.532;2023-03-30T09:58:28;10.67;;;3.10;;
52480;SDS011;38393;52.404;13.532;2023-03-30T10:01:08;10.93;;;3.07;;
52480;SDS011;38393;52.404;13.532;2023-03-30T10:03:36;8.33;;;2.70;;
52480;SDS011;38393;52.404;13.532;2023-03-30T10:06:04;8.10;;;3.30;;
52480;SDS011;38393;52.404;13.532;2023-03-30T10:08:41;6.67;;;2.90;;
52480;SDS011;38393;52.404;13.532;2023-03-30T10:11:13;8.03;;;2.80;;
52480;SDS011;38393;52.404;13.532;2023-03-30T10:13:44;10.17;;;2.50;;
52480;SDS011;38393;52.404;13.532;2023-03-30T10:16:25;10.13;;;3.17;;
52480;SDS011;38393;52.404;13.532;2023-03-30T10:19:00;7.57;;;2.90;;
52480;SDS011;38393;52.404;13.532;2023-03-30T10:21:29;10.83;;;2.93;;
52480;SDS011;38393;52.404;13.532;2023-03-30T10:26:46;8.40;;;2.90;;
52480;SDS011;38393;52.404;13.532;2023-03-30T10:29:15;10.20;;;3.30;;
52480;SDS011;38393;52.404;13.532;2023-03-30T10:31:43;7.50;;;3.33;;
52480;SDS011;38393;52.404;13.532;2023-03-30T10:34:14;7.33;;;3.27;;
52480;SDS011;38393;52.404;13.532;2023-03-30T10:36:42;13.47;;;3.30;;
52480;SDS011;38393;52.404;13.532;2023-03-30T10:39:13;11.80;;;3.53;;
52480;SDS011;38393;52.404;13.532;2023-03-30T10:41:46;7.23;;;3.40;;
52480;SDS011;38393;52.404;13.532;2023-03-30T10:44:23;10.53;;;3.23;;
52480;SDS011;38393;52.404;13.532;2023-03-30T10:49:55;6.50;;;3.23;;
52480;SDS011;38393;52.404;13.532;2023-03-30T10:52:55;7.50;;;3.33;;
52480;SDS011;38393;52.404;13.532;2023-03-30T10:55:39;9.23;;;3.10;;
52480;SDS011;38393;52.404;13.532;2023-03-30T11:04:40;12.70;;;3.17;;
52480;SDS011;38393;52.404;13.532;2023-03-30T11:07:14;10.80;;;3.30;;
52480;SDS011;38393;52.404;13.532;2023-03-30T11:09:51;9.93;;;3.37;;
52480;SDS011;38393;52.404;13.532;2023-03-30T11:12:22;18.53;;;3.27;;
52480;SDS011;38393;52.404;13.532;2023-03-30T11:14:59;9.37;;;3.30;;
52480;SDS011;38393;52.404;13.532;2023-03-30T11:17:36;7.17;;;3.30;;
52480;SDS011;38393;52.404;13.532;2023-03-30T11:20:27;9.00;;;3.07;;
52480;SDS011;38393;52.404;13.532;2023-03-30T11:25:33;9.17;;;3.00;;
52480;SDS011;38393;52.404;13.532;2023-03-30T11:28:10;10.80;;;2.80;;
52480;SDS011;38393;52.404;13.532;2023-03-30T11:30:46;7.53;;;2.97;;
52480;SDS011;38393;52.404;13.532;2023-03-30T11:35:58;10.13;;;3.30;;
52480;SDS011;38393;52.404;13.532;2023-03-30T11:38:38;12.97;;;3.20;;
52480;SDS011;38393;52.404;13.532;2023-03-30T11:44:02;16.70;;;3.53;;
52480;SDS011;38393;52.404;13.532;2023-03-30T11:46:37;9.10;;;3.30;;
52480;SDS011;38393;52.404;13.532;2023-03-30T11:49:18;8.23;;;2.80;;
52480;SDS011;38393;52.404;13.532;2023-03-30T11:52:20;8.00;;;3.27;;
52480;SDS011;38393;52.404;13.532;2023-03-30T11:55:03;11.47;;;3.23;;
52480;SDS011;38393;52.404;13.532;2023-03-30T11:57:47;9.33;;;3.10;;
52480;SDS011;38393;52.404;13.532;2023-03-30T12:00:48;17.80;;;3.22;;
52480;SDS011;38393;52.404;13.532;2023-03-30T12:03:37;7.65;;;2.90;;
52480;SDS011;38393;52.404;13.532;2023-03-30T12:06:16;10.63;;;3.00;;
52480;SDS011;38393;52.404;13.532;2023-03-30T12:09:13;7.13;;;2.63;;
52480;SDS011;38393;52.404;13.532;2023-03-30T12:12:06;13.48;;;3.40;;
52480;SDS011;38393;52.404;13.532;2023-03-30T12:14:52;10.90;;;3.47;;
52480;SDS011;38393;52.404;13.532;2023-03-30T12:20:35;7.80;;;3.13;;
52480;SDS011;38393;52.404;13.532;2023-03-30T12:26:15;13.10;;;3.53;;
52480;SDS011;38393;52.404;13.532;2023-03-30T12:31:19;11.65;;;3.65;;
52480;SDS011;38393;52.404;13.532;2023-03-30T12:33:48;6.82;;;3.30;;
52480;SDS011;38393;52.404;13.532;2023-03-30T12:39:03;10.50;;;3.30;;
52480;SDS011;38393;52.404;13.532;2023-03-30T12:41:37;12.80;;;3.75;;
52480;SDS011;38393;52.404;13.532;2023-03-30T12:44:22;9.93;;;3.33;;
52480;SDS011;38393;52.404;13.532;2023-03-30T12:47:11;11.82;;;3.58;;
52480;SDS011;38393;52.404;13.532;2023-03-30T12:50:12;16.13;;;3.90;;
52480;SDS011;38393;52.404;13.532;2023-03-30T12:55:40;10.02;;;4.03;;
52480;SDS011;38393;52.404;13.532;2023-03-30T12:58:26;11.20;;;3.83;;
52480;SDS011;38393;52.404;13.532;2023-03-30T13:04:05;12.13;;;3.63;;
52480;SDS011;38393;52.404;13.532;2023-03-30T13:06:37;11.68;;;3.20;;
52480;SDS011;38393;52.404;13.532;2023-03-30T13:24:52;8.88;;;3.20;;
52480;SDS011;38393;52.404;13.532;2023-03-30T13:27:23;10.80;;;3.33;;
52480;SDS011;38393;52.404;13.532;2023-03-30T13:29:55;10.68;;;3.63;;
52480;SDS011;38393;52.404;13.532;2023-03-30T13:35:04;9.20;;;3.65;;
52480;SDS011;38393;52.404;13.532;2023-03-30T13:38:01;11.45;;;3.30;;
52480;SDS011;38393;52.404;13.532;2023-03-30T13:41:00;14.05;;;3.40;;
52480;SDS011;38393;52.404;13.532;2023-03-30T13:44:00;11.35;;;4.13;;
52480;SDS011;38393;52.404;13.532;2023-03-30T13:46:34;13.10;;;3.45;;
52480;SDS011;38393;52.404;13.532;2023-03-30T13:49:16;11.50;;;3.28;;
52480;SDS011;38393;52.404;13.532;2023-03-30T13:51:57;9.20;;;2.92;;
52480;SDS011;38393;52.404;13.532;2023-03-30T13:54:32;5.80;;;3.17;;
52480;SDS011;38393;52.404;13.532;2023-03-30T13:57:09;9.98;;;2.90;;
52480;SDS011;38393;52.404;13.532;2023-03-30T13:59:44;10.75;;;3.38;;
52480;SDS011;38393;52.404;13.532;2023-03-30T14:02:15;9.38;;;3.30;;
52480;SDS011;38393;52.404;13.532;2023-03-30T14:04:43;11.25;;;2.80;;
52480;SDS011;38393;52.404;13.532;2023-03-30T14:07:13;10.52;;;2.85;;
52480;SDS011;38393;52.404;13.532;2023-03-30T14:09:40;9.65;;;2.50;;
52480;SDS011;38393;52.404;13.532;2023-03-30T14:12:06;5.25;;;2.03;;
52480;SDS011;38393;52.404;13.532;2023-03-30T14:14:36;3.73;;;1.60;;
52480;SDS011;38393;52.404;13.532;2023-03-30T14:17:10;7.53;;;2.43;;
52480;SDS011;38393;52.404;13.532;2023-03-30T14:19:44;10.07;;;3.00;;
52480;SDS011;38393;52.404;13.532;2023-03-30T14:22:20;10.70;;;3.13;;
52480;SDS011;38393;52.404;13.532;2023-03-30T14:24:56;9.70;;;3.40;;
52480;SDS011;38393;52.404;13.532;2023-03-30T14:27:30;5.93;;;3.53;;
52480;SDS011;38393;52.404;13.532;2023-03-30T14:30:05;12.60;;;3.77;;
52480;SDS011;38393;52.404;13.532;2023-03-30T14:32:43;8.23;;;3.90;;
52480;SDS011;38393;52.404;13.532;2023-03-30T14:35:13;10.17;;;4.20;;
52480;SDS011;38393;52.404;13.532;2023-03-30T14:37:42;9.93;;;4.50;;
52480;SDS011;38393;52.404;13.532;2023-03-30T14:40:12;9.17;;;4.70;;
52480;SDS011;38393;52.404;13.532;2023-03-30T14:42:39;7.10;;;4.07;;
52480;SDS011;38393;52.404;13.532;2023-03-30T14:45:06;10.00;;;4.53;;
52480;SDS011;38393;52.404;13.532;2023-03-30T14:47:33;8.53;;;4.97;;
52480;SDS011;38393;52.404;13.532;2023-03-30T14:50:01;7.63;;;4.30;;
52480;SDS011;38393;52.404;13.532;2023-03-30T14:52:32;8.87;;;5.10;;
52480;SDS011;38393;52.404;13.532;2023-03-30T14:55:03;17.67;;;4.90;;
52480;SDS011;38393;52.404;13.532;2023-03-30T14:57:30;9.50;;;5.23;;
52480;SDS011;38393;52.404;13.532;2023-03-30T15:00:00;14.30;;;6.00;;
52480;SDS011;38393;52.404;13.532;2023-03-30T15:02:37;12.80;;;6.33;;
52480;SDS011;38393;52.404;13.532;2023-03-30T15:05:05;10.53;;;5.97;;
52480;SDS011;38393;52.404;13.532;2023-03-30T15:07:33;12.93;;;6.83;;
52480;SDS011;38393;52.404;13.532;2023-03-30T15:09:59;15.67;;;8.47;;
52480;SDS011;38393;52.404;13.532;2023-03-30T15:12:26;16.47;;;9.53;;
52480;SDS011;38393;52.404;13.532;2023-03-30T15:14:56;16.80;;;8.23;;
52480;SDS011;38393;52.404;13.532;2023-03-30T15:17:26;15.73;;;8.77;;
52480;SDS011;38393;52.404;13.532;2023-03-30T15:19:53;15.10;;;7.87;;
52480;SDS011;38393;52.404;13.532;2023-03-30T15:22:29;12.33;;;7.87;;
52480;SDS011;38393;52.404;13.532;2023-03-30T15:24:55;17.83;;;12.00;;
52480;SDS011;38393;52.404;13.532;2023-03-30T15:27:24;15.87;;;9.33;;
52480;SDS011;38393;52.404;13.532;2023-03-30T15:29:50;19.50;;;12.50;;
52480;SDS011;38393;52.404;13.532;2023-03-30T15:32:31;19.53;;;11.43;;
52480;SDS011;38393;52.404;13.532;2023-03-30T15:37:48;38.33;;;18.87;;
52480;SDS011;38393;52.404;13.532;2023-03-30T15:40:29;25.17;;;13.70;;
52480;SDS011;38393;52.404;13.532;2023-03-30T15:43:17;17.93;;;11.70;;
52480;SDS011;38393;52.404;13.532;2023-03-30T15:45:54;16.03;;;9.30;;
52480;SDS011;38393;52.404;13.532;2023-03-30T15:48:25;22.37;;;14.33;;
52480;SDS011;38393;52.404;13.532;2023-03-30T15:50:59;17.20;;;10.20;;
52480;SDS011;38393;52.404;13.532;2023-03-30T15:53:39;15.30;;;7.70;;
52480;SDS011;38393;52.404;13.532;2023-03-30T15:56:26;15.33;;;7.40;;
52480;SDS011;38393;52.404;13.532;2023-03-30T15:59:01;14.43;;;8.47;;
52480;SDS011;38393;52.404;13.532;2023-03-30T16:01:38;19.00;;;9.83;;
52480;SDS011;38393;52.404;13.532;2023-03-30T16:04:07;10.63;;;7.40;;
52480;SDS011;38393;52.404;13.532;2023-03-30T16:06:32;14.87;;;7.17;;
52480;SDS011;38393;52.404;13.532;2023-03-30T16:08:58;13.33;;;7.90;;
52480;SDS011;38393;52.404;13.532;2023-03-30T16:11:24;10.87;;;5.60;;
52480;SDS011;38393;52.404;13.532;2023-03-30T16:13:50;13.27;;;6.00;;
52480;SDS011;38393;52.404;13.532;2023-03-30T16:16:16;9.70;;;5.30;;
52480;SDS011;38393;52.404;13.532;2023-03-30T16:18:42;14.43;;;6.20;;
52480;SDS011;38393;52.404;13.532;2023-03-30T16:21:08;18.07;;;6.43;;
52480;SDS011;38393;52.404;13.532;2023-03-30T16:23:34;17.80;;;6.40;;
52480;SDS011;38393;52.404;13.532;2023-03-30T16:26:00;10.63;;;5.90;;
52480;SDS011;38393;52.404;13.532;2023-03-30T16:28:26;12.40;;;5.70;;